Address 0xF5C28ce24Acf47849988f147d5C75787c0103534 6

 
 
Txn Hash Method
Block
From
To
Value [Txn Fee]
0x6b0a7babc8647b85be08241a9edf4e15a1f5d0fef7d2b22373df15d5b80d653eTransfer335923212022-09-26 13:58:279 days 3 hrs ago0xf5c28ce24acf47849988f147d5c75787c0103534OUT0x903073735bb6fdb802bd3cdd3b3a2b00c36bc2a9300 MATIC0.000639291488 30.442451844
0xac4943ae5cf3f9625feae812fa991df5f783bf54a0f5dcb0fd220a99b4140853Multicall335922882022-09-26 13:57:179 days 3 hrs ago0xf5c28ce24acf47849988f147d5c75787c0103534OUTUniswap V3: Router 20 MATIC0.004092194037 30.211173157
0xb524a60c3beed36b7c2a249a5f56f2a3ec28a5ce38d00ddc351ed2ce3fbffcfaApprove335922512022-09-26 13:55:599 days 3 hrs ago0xf5c28ce24acf47849988f147d5c75787c0103534OUT Wrapped Ether0 MATIC0.001635251534 35.007097416
0x4bd5be4b4ca0016c05c8d073dc6d930ea8d3d6af1498a328d86f72db4664a098Create Stream335716142022-09-26 1:52:259 days 15 hrs ago0xf5c28ce24acf47849988f147d5c75787c0103534OUT 0xac18eab6592f5ff6f9acf5e0dce0df8e49124c060 MATIC0.007199699986 30.001000018
0x48202fb775821f06182ef715460d8d0885abd895b5d1686746f44d5cc0ac152aTransfer335715392022-09-26 1:49:519 days 15 hrs ago0xf5c28ce24acf47849988f147d5c75787c0103534OUT 0xf7e78d9c4c74df889a83c8c8d6d05bf70ff758760 MATIC0.0017236124 30.070000003
0x585225b8e792f4d61e4c2b2ee80d2bc18336ee0804053b567d8ce9cb3ebe672dTransfer335600062022-09-25 19:04:499 days 22 hrs ago0xf5c28ce24acf47849988f147d5c75787c0103534OUT0x22c095c69c38b66afaad4efd4280d94ec9d12f4c10 MATIC0.00063 30.000000015
0xaf6dbf4e9375c06b4960941ab33ed49b9ede38c108889724497208d8e99d73baCreate Invite Li...328257212022-09-08 0:55:0127 days 16 hrs ago0xf5c28ce24acf47849988f147d5c75787c0103534OUT 0x168a72b08fcff48192e0b1a27486f4394a4f86e10 MATIC0.002886303519 35.009685711
0xe56642df5ccab90defa886b004be3b88e03b422776de9cecff52e04dc13b84c7Create Invite Li...328257022022-09-08 0:54:2327 days 16 hrs ago0xf5c28ce24acf47849988f147d5c75787c0103534OUT 0x168a72b08fcff48192e0b1a27486f4394a4f86e10 MATIC0.002950842742 35.787311165
0xacd4737119d1624af8e4834ed143fd318110a6fc71a8524f2a39089b41f0a50dCreate Invite Li...328256542022-09-08 0:52:4327 days 16 hrs ago0xf5c28ce24acf47849988f147d5c75787c0103534OUT 0x168a72b08fcff48192e0b1a27486f4394a4f86e10 MATIC0.003002994111 36.419793962
0x09120024130b95585ba637e498014fe466cd47d3e954b328818c97b8cfa001b0Transfer328101922022-09-07 15:46:4728 days 1 hr ago0x903073735bb6fdb802bd3cdd3b3a2b00c36bc2a9 IN 0xf5c28ce24acf47849988f147d5c75787c01035340.854585154581075 MATIC0.000676181172 32.199103459
0xea7981d4088d4fa61616c32fab1a608d72d98e615149488d3c0b5189dde376a2Purchase325354202022-09-01 0:35:5234 days 17 hrs ago0xf5c28ce24acf47849988f147d5c75787c0103534OUT 0xacf0e90c2b8dd99f2bed11989c397f9770a987030 MATIC0.011103072631 37.510380511
0xa2faa4debff3936e7c05e28b95eab93abe5266337f43c6b40f19ea09ee7dd2d0Approve325354152022-09-01 0:35:3234 days 17 hrs ago0xf5c28ce24acf47849988f147d5c75787c0103534OUT Wrapped Ether0 MATIC0.001732121957 37.339871469
0xcdf585be5c06f3cc52a49ca3fa495fa1af5015ef6656ecd7129315a6c8f540efApprove325353942022-09-01 0:34:0834 days 17 hrs ago0xf5c28ce24acf47849988f147d5c75787c0103534OUT Wrapped Ether0 MATIC0.001489854243 32.108927671
0x3d6175331143b5c21834747129bc8c5c5a6cf10cd2fbe6306997a1bf1e96773fCreate Workspace322323362022-08-23 14:27:3143 days 3 hrs ago0xf5c28ce24acf47849988f147d5c75787c0103534OUT 0x168a72b08fcff48192e0b1a27486f4394a4f86e10 MATIC0.014246253956 90.645783745
0x55f99790168ba48ffa270a3cf187b1fa2511e5ab5385d4913fc406306e3a3c1dApprove322320582022-08-23 14:16:4643 days 3 hrs ago0xf5c28ce24acf47849988f147d5c75787c0103534OUT 0xf7e78d9c4c74df889a83c8c8d6d05bf70ff758760 MATIC0.00213727093 71.749393401
0xc4945b04cf60e9a6fc21bbd62b34e70da1edc3e0c76380beb3a9db466997a27bDisperse Token322320322022-08-23 14:15:5443 days 3 hrs ago0xf5c28ce24acf47849988f147d5c75787c0103534OUT Disperse.app: Matic Network0 MATIC0.018896014285 77.710528032
0x86e44dd99ebcae279a80c46d4e2e4fa0afa3c977a7670a9929ac2cfa6ee081cdApprove322319942022-08-23 14:14:3443 days 3 hrs ago0xf5c28ce24acf47849988f147d5c75787c0103534OUT 0xf7e78d9c4c74df889a83c8c8d6d05bf70ff758760 MATIC0.002056366337 58.800364221
0xe2615a227e2127a9d288ef0cd5386dca9ebd002583678c45a4adc103e3c649beApprove322319642022-08-23 14:13:3443 days 3 hrs ago0xf5c28ce24acf47849988f147d5c75787c0103534OUT 0xf7e78d9c4c74df889a83c8c8d6d05bf70ff758760 MATIC0.002986147073 57.678804643
0x9c96daa6b96741bfaf07ecd4a5f05030be7078f60a0b1f104988a9d74b88cb60Transfer320291502022-08-18 10:05:5848 days 7 hrs ago0xe5cd62ac8d2ca2a62a04958f07dd239c1ffe1a9e IN 0xf5c28ce24acf47849988f147d5c75787c01035346.001117099127213 MATIC0.000630000001 30.000000074
0x6b01a69f9192f32ff82a4b6fee55a12dfc257b95052695fca4a1155f3c20aa0bTransfer318554052022-08-13 20:28:0452 days 21 hrs ago0xf5c28ce24acf47849988f147d5c75787c0103534OUT0x22c095c69c38b66afaad4efd4280d94ec9d12f4c30 MATIC0.000682395 32.495000006
0xe615130a51a85edda82025cdcc5613643aec84c97e69f2ff3100b6f4a7133120Update Transfer ...312088482022-07-27 19:42:2069 days 21 hrs ago0xf5c28ce24acf47849988f147d5c75787c0103534OUT 0x7d0df7580b910682ee3310c69df39a00ff795d100 MATIC0.002123990729 38.965872229
0x286771542f33b222611ef4d46f696ebb09dfb40a50a3eb2c6cfd253382f1742bUpdate Beneficia...312088482022-07-27 19:42:2069 days 21 hrs ago0xf5c28ce24acf47849988f147d5c75787c0103534OUT 0x7d0df7580b910682ee3310c69df39a00ff795d100 MATIC0.001238640361 33.697164202
0xecf094e81b325e7e5cadb280eea895f73a56878cb8d2c988a5c6f95e30ec8d4aAdd Lock Manager312088482022-07-27 19:42:2069 days 21 hrs ago0xf5c28ce24acf47849988f147d5c75787c0103534OUT 0x7d0df7580b910682ee3310c69df39a00ff795d100 MATIC0.001803111392 30.03233552
0xa87094ada2f765121495e46ff96911152dc5b52cf9703b90161dffb5b1e5fc26Add Lock Manager312088482022-07-27 19:42:2069 days 21 hrs ago0xf5c28ce24acf47849988f147d5c75787c0103534OUT 0x7d0df7580b910682ee3310c69df39a00ff795d100 MATIC0.001803111392 30.03233552
0x2a4c2e4811481edce7e46e23de8ea872ea86040b7e6a8e49ffc0573e6b6fe1cfGrant Keys312081422022-07-27 19:18:0469 days 22 hrs ago0xf5c28ce24acf47849988f147d5c75787c0103534OUT 0x7d0df7580b910682ee3310c69df39a00ff795d100 MATIC0.005876896144 30.652417995
[ Download CSV Export 
Latest 2 internal transactions
Parent Txn Hash Block From To Value
0xac4943ae5cf3f9625feae812fa991df5f783bf54a0f5dcb0fd220a99b4140853335922882022-09-26 13:57:179 days 3 hrs ago Uniswap V3: Router 20xf5c28ce24acf47849988f147d5c75787c0103534874.855420748349836364 MATIC
0x8a8d27a6598e0ad8f63bb6669543012417acafa6244c2157f8cfd09a15e8c452221869462021-12-06 3:20:04303 days 14 hrs ago Polygon: Airdrop0xf5c28ce24acf47849988f147d5c75787c01035340.02 MATIC
[ Download CSV Export 
Loading

Contract Name:
0 MATIC

Compiler Version
0

Optimization Enabled:
0 MATIC

Other Settings:
-NA-
Block Transaction Gas Used Reward
Age Block Fee Address BC Fee Address Voting Power Jailed Incoming
Block Uncle Number Difficulty Gas Used Reward
Loading
Loading
Make sure to use the "Vote Down" button for any spammy posts, and the "Vote Up" for interesting conversations.